Time;durP1;ratioP1;P1;durP2;ratioP2;P2;SDS_P1;SDS_P2;PMS_P1;PMS_P2;Temp;Humidity;BMP_temperature;BMP_pressure;BME280_temperature;BME280_humidity;BME280_pressure;Samples;Min_cycle;Max_cycle;Signal;HPM_P1;HPM_P2
2024/01/29 00:01:34;;;;;;;4.63;1.30;;;;;;;9.86;100.00;100720.78;5069427;28;20048;-72
2024/01/29 00:04:01;;;;;;;6.10;1.48;;;;;;;9.78;100.00;100739.38;5068785;28;20052;-74
2024/01/29 00:06:29;;;;;;;6.20;1.70;;;;;;;9.77;100.00;100745.50;5067939;28;20060;-72
2024/01/29 00:08:56;;;;;;;10.35;2.10;;;;;;;9.55;100.00;100740.16;5067029;28;20060;-72
2024/01/29 00:11:24;;;;;;;5.97;2.05;;;;;;;9.78;100.00;100748.97;5068270;28;20044;-72
2024/01/29 00:13:51;;;;;;;6.72;1.40;;;;;;;9.83;100.00;100741.84;5067760;28;20079;-72
2024/01/29 00:16:18;;;;;;;6.15;1.58;;;;;;;9.69;100.00;100758.00;5067666;28;20063;-72
2024/01/29 00:18:45;;;;;;;5.78;1.38;;;;;;;9.87;100.00;100757.34;5065591;28;20536;-72
2024/01/29 00:21:12;;;;;;;5.55;1.30;;;;;;;9.92;100.00;100767.66;5066299;28;20343;-72
2024/01/29 00:23:39;;;;;;;5.65;1.40;;;;;;;9.98;100.00;100769.22;5067958;28;20478;-72
2024/01/29 00:26:06;;;;;;;5.88;1.40;;;;;;;9.75;100.00;100770.00;5068176;28;20063;-72
2024/01/29 00:28:32;;;;;;;7.07;1.40;;;;;;;9.83;100.00;100771.44;5069138;28;20128;-72
2024/01/29 00:30:59;;;;;;;5.90;1.40;;;;;;;9.67;100.00;100791.19;5069367;28;20056;-72
2024/01/29 00:33:26;;;;;;;9.07;1.85;;;;;;;9.56;100.00;100799.38;5061829;28;20047;-72
2024/01/29 00:35:53;;;;;;;10.70;1.95;;;;;;;9.53;100.00;100791.63;5055848;28;20102;-72
2024/01/29 00:38:20;;;;;;;8.65;1.70;;;;;;;9.77;100.00;100802.16;5056129;28;20144;-73
2024/01/29 00:40:47;;;;;;;7.18;1.20;;;;;;;9.64;100.00;100796.50;5067798;28;20082;-72
2024/01/29 00:43:14;;;;;;;3.38;1.23;;;;;;;9.73;100.00;100801.41;5069349;28;20048;-72
2024/01/29 00:45:40;;;;;;;4.10;1.30;;;;;;;9.81;100.00;100801.16;5063470;28;20048;-72
2024/01/29 00:48:07;;;;;;;4.15;1.20;;;;;;;9.76;100.00;100809.16;5076287;28;20083;-72
2024/01/29 00:50:33;;;;;;;3.08;1.10;;;;;;;9.79;100.00;100803.84;5065981;28;20080;-72
2024/01/29 00:53:00;;;;;;;5.93;1.35;;;;;;;9.73;100.00;100809.25;5068526;28;20045;-73
2024/01/29 00:55:27;;;;;;;6.60;1.55;;;;;;;9.43;100.00;100819.78;5067654;28;20068;-72
2024/01/29 00:57:53;;;;;;;7.80;1.35;;;;;;;9.58;100.00;100828.06;5072834;28;20060;-72
2024/01/29 01:00:21;;;;;;;9.77;1.50;;;;;;;9.44;100.00;100834.59;5074333;28;20053;-72
2024/01/29 01:02:47;;;;;;;4.40;1.40;;;;;;;9.58;100.00;100833.28;5072820;28;20464;-72
2024/01/29 01:05:14;;;;;;;6.55;1.40;;;;;;;9.52;100.00;100846.56;5071302;28;20387;-72
2024/01/29 01:07:41;;;;;;;4.72;1.30;;;;;;;9.58;100.00;100846.34;5072251;28;20043;-72
2024/01/29 01:10:08;;;;;;;6.93;1.52;;;;;;;9.50;100.00;100852.69;5072380;28;20136;-72
2024/01/29 01:12:35;;;;;;;15.30;1.92;;;;;;;9.47;100.00;100865.00;5072878;28;20052;-72
2024/01/29 01:15:01;;;;;;;9.07;1.67;;;;;;;9.53;100.00;100862.19;5072977;28;20102;-72
2024/01/29 01:17:28;;;;;;;4.70;1.40;;;;;;;9.51;100.00;100877.06;5071925;28;20079;-72
2024/01/29 01:19:55;;;;;;;5.63;1.52;;;;;;;9.41;100.00;100886.94;5072169;28;20135;-72
2024/01/29 01:22:21;;;;;;;8.50;1.80;;;;;;;9.29;100.00;100890.78;5077692;28;20376;-72
2024/01/29 01:24:48;;;;;;;7.25;1.42;;;;;;;9.50;100.00;100893.66;5073358;28;20180;-72
2024/01/29 01:27:16;;;;;;;5.78;1.55;;;;;;;9.46;100.00;100894.66;5064876;28;20624;-72
2024/01/29 01:29:44;;;;;;;7.82;1.73;;;;;;;9.39;100.00;100895.75;5072440;28;20131;-72
2024/01/29 01:32:11;;;;;;;9.93;1.60;;;;;;;9.36;100.00;100899.28;5069766;28;20131;-72
2024/01/29 01:34:37;;;;;;;8.23;2.10;;;;;;;9.35;100.00;100900.22;5070074;28;20504;-72
2024/01/29 01:37:04;;;;;;;10.90;1.95;;;;;;;9.14;100.00;100901.69;5068089;28;20135;-72
2024/01/29 01:39:31;;;;;;;8.65;1.80;;;;;;;9.36;100.00;100908.91;5060870;28;20056;-72
2024/01/29 01:41:58;;;;;;;8.65;1.85;;;;;;;9.38;100.00;100907.94;5073112;28;20474;-71
2024/01/29 01:44:25;;;;;;;6.68;1.90;;;;;;;9.32;100.00;100922.03;5070525;28;20507;-72
2024/01/29 01:46:51;;;;;;;8.57;2.05;;;;;;;9.24;100.00;100924.03;5063175;28;20052;-72
2024/01/29 01:49:19;;;;;;;15.07;2.70;;;;;;;9.34;100.00;100923.78;5071328;28;20052;-72
2024/01/29 01:51:46;;;;;;;6.85;1.70;;;;;;;9.22;100.00;100938.03;5071602;28;20046;-72
2024/01/29 01:54:13;;;;;;;6.13;1.83;;;;;;;9.22;100.00;100953.72;5058046;28;20052;-72
2024/01/29 01:56:41;;;;;;;7.10;1.85;;;;;;;9.19;100.00;100959.88;5063949;28;20048;-72
2024/01/29 01:59:10;;;;;;;8.43;2.05;;;;;;;9.19;100.00;100951.19;5072500;28;20056;-72
2024/01/29 02:01:38;;;;;;;11.02;1.98;;;;;;;9.20;100.00;100958.13;5067772;28;20140;-72
2024/01/29 02:04:05;;;;;;;9.38;2.20;;;;;;;9.32;100.00;100965.63;5061588;28;20052;-72
2024/01/29 02:06:32;;;;;;;8.50;2.75;;;;;;;9.18;100.00;100971.22;5068339;28;20559;-72
2024/01/29 02:09:00;;;;;;;7.88;1.60;;;;;;;9.24;100.00;100978.03;5067388;28;20048;-71
2024/01/29 02:11:27;;;;;;;5.85;1.73;;;;;;;9.16;100.00;100986.09;5069272;28;20155;-72
2024/01/29 02:13:53;;;;;;;10.25;1.80;;;;;;;9.09;100.00;100985.41;5058998;28;20056;-72
2024/01/29 02:16:20;;;;;;;13.52;2.25;;;;;;;9.06;100.00;100985.47;5071731;28;20052;-72
2024/01/29 02:18:47;;;;;;;9.85;1.88;;;;;;;9.09;100.00;100972.34;5079580;28;20056;-72
2024/01/29 02:21:14;;;;;;;7.95;1.58;;;;;;;9.13;100.00;100992.25;5071653;28;20059;-72
2024/01/29 02:23:47;;;;;;;9.63;2.00;;;;;;;9.18;100.00;100993.91;5071446;28;20044;-72
2024/01/29 02:26:13;;;;;;;9.68;1.75;;;;;;;9.09;100.00;100997.63;5068638;28;20135;-72
2024/01/29 02:28:40;;;;;;;6.35;1.50;;;;;;;9.10;100.00;100999.31;5073182;28;20052;-72
2024/01/29 02:31:06;;;;;;;11.88;1.65;;;;;;;9.03;100.00;101010.81;5074111;28;20486;-72
2024/01/29 02:33:33;;;;;;;8.23;1.90;;;;;;;9.03;100.00;101022.16;5076601;28;20377;-72
2024/01/29 02:36:00;;;;;;;11.57;2.00;;;;;;;8.95;100.00;101020.63;5067691;28;20049;-72
2024/01/29 02:38:27;;;;;;;8.30;1.63;;;;;;;8.82;100.00;101025.28;5069182;28;20562;-71
2024/01/29 02:40:54;;;;;;;12.90;2.05;;;;;;;8.71;100.00;101020.34;5069790;28;20067;-72
2024/01/29 02:43:20;;;;;;;8.75;1.60;;;;;;;8.72;100.00;101022.94;5071013;28;20048;-72
2024/01/29 02:45:48;;;;;;;11.27;2.60;;;;;;;8.49;100.00;101027.88;5056709;28;20049;-72
2024/01/29 02:48:15;;;;;;;8.68;2.08;;;;;;;8.51;100.00;101044.34;5060018;28;20048;-72
2024/01/29 02:50:42;;;;;;;9.02;1.90;;;;;;;8.40;100.00;101059.38;5068599;28;20056;-72
2024/01/29 02:53:08;;;;;;;13.25;2.50;;;;;;;8.52;100.00;101064.34;5071462;28;20068;-72
2024/01/29 02:55:35;;;;;;;11.25;2.00;;;;;;;8.49;100.00;101056.56;5053394;28;20056;-72
2024/01/29 02:58:02;;;;;;;10.00;1.90;;;;;;;8.39;100.00;101066.31;5060612;28;20057;-72
2024/01/29 03:00:31;;;;;;;12.95;2.10;;;;;;;8.36;100.00;101062.03;5074861;28;20045;-72
2024/01/29 03:02:58;;;;;;;13.77;2.65;;;;;;;8.46;100.00;101069.69;5079257;28;20545;-72
2024/01/29 03:05:25;;;;;;;14.80;2.72;;;;;;;8.32;100.00;101069.97;5062701;28;20398;-72
2024/01/29 03:07:51;;;;;;;7.75;1.80;;;;;;;8.34;100.00;101065.59;5069148;28;20048;-72
2024/01/29 03:10:18;;;;;;;6.43;1.60;;;;;;;8.43;100.00;101077.59;5069989;28;20044;-72
2024/01/29 03:12:45;;;;;;;9.68;2.50;;;;;;;8.36;100.00;101093.34;5070631;28;20048;-72
2024/01/29 03:15:12;;;;;;;9.52;2.08;;;;;;;8.28;100.00;101097.88;5073536;28;20044;-73
2024/01/29 03:17:39;;;;;;;12.27;2.60;;;;;;;8.36;100.00;101100.34;5063299;28;20052;-73
2024/01/29 03:20:06;;;;;;;12.55;2.10;;;;;;;8.24;100.00;101092.78;5070140;28;20452;-72
2024/01/29 03:22:33;;;;;;;10.25;1.80;;;;;;;8.38;100.00;101097.69;5060064;28;20486;-72
2024/01/29 03:24:59;;;;;;;10.05;1.90;;;;;;;8.23;100.00;101107.56;5052521;28;20068;-72
2024/01/29 03:27:26;;;;;;;12.35;2.40;;;;;;;8.35;100.00;101115.09;5070064;28;20044;-72
2024/01/29 03:29:53;;;;;;;10.63;2.33;;;;;;;8.29;100.00;101125.69;5067959;28;20526;-72
2024/01/29 03:32:20;;;;;;;14.48;2.30;;;;;;;8.22;100.00;101131.94;5066148;28;20059;-71
2024/01/29 03:34:46;;;;;;;7.50;1.77;;;;;;;8.28;100.00;101128.34;5068028;28;20573;-72
2024/01/29 03:37:13;;;;;;;12.20;1.98;;;;;;;8.39;100.00;101125.50;5068809;28;20067;-72
2024/01/29 03:39:40;;;;;;;7.85;2.08;;;;;;;8.20;100.00;101127.63;5068374;28;20056;-72
2024/01/29 03:42:07;;;;;;;8.93;2.03;;;;;;;8.18;100.00;101135.53;5068847;28;20052;-72
2024/01/29 03:44:33;;;;;;;8.48;1.85;;;;;;;8.38;100.00;101139.44;5070192;28;20127;-71
2024/01/29 03:47:00;;;;;;;7.97;2.22;;;;;;;8.38;100.00;101147.28;5069949;28;20076;-72
2024/01/29 03:49:27;;;;;;;12.32;2.20;;;;;;;8.40;100.00;101156.78;5058654;28;20052;-72
2024/01/29 03:51:53;;;;;;;11.43;1.77;;;;;;;8.34;100.00;101164.75;5056257;28;20423;-72
2024/01/29 03:54:20;;;;;;;7.80;1.85;;;;;;;8.22;100.00;101150.19;5055696;28;20056;-72
2024/01/29 03:56:47;;;;;;;7.78;1.90;;;;;;;8.24;100.00;101137.13;5063036;28;20094;-72
2024/01/29 03:59:13;;;;;;;13.25;2.30;;;;;;;8.27;100.00;101150.09;5070636;28;20063;-72
2024/01/29 04:01:40;;;;;;;12.23;2.33;;;;;;;8.22;100.00;101151.97;5068561;28;20056;-72
2024/01/29 04:04:10;;;;;;;11.00;2.63;;;;;;;8.20;100.00;101148.50;5066712;28;20152;-72
2024/01/29 04:06:41;;;;;;;9.73;2.08;;;;;;;8.10;100.00;101171.31;5060681;28;20117;-72
2024/01/29 04:09:09;;;;;;;8.27;2.00;;;;;;;8.11;100.00;101170.41;5060579;28;20500;-72
2024/01/29 04:11:36;;;;;;;12.10;2.75;;;;;;;8.03;100.00;101177.56;5070761;28;20048;-72
2024/01/29 04:14:03;;;;;;;6.28;1.70;;;;;;;8.13;100.00;101176.47;5062696;28;20052;-72
2024/01/29 04:16:30;;;;;;;6.47;2.08;;;;;;;8.02;100.00;101170.59;5069474;28;20048;-72
2024/01/29 04:18:57;;;;;;;6.85;1.90;;;;;;;7.95;100.00;101172.47;5074009;28;20410;-72
2024/01/29 04:21:24;;;;;;;8.13;1.92;;;;;;;7.91;100.00;101184.72;5065758;28;20088;-71
2024/01/29 04:23:52;;;;;;;7.22;1.90;;;;;;;7.83;100.00;101188.38;5049909;28;20090;-72
2024/01/29 04:26:19;;;;;;;5.75;1.55;;;;;;;7.91;100.00;101178.66;5065253;28;20060;-72
2024/01/29 04:28:46;;;;;;;6.25;1.48;;;;;;;7.78;100.00;101191.06;5070067;28;20064;-72
2024/01/29 04:31:13;;;;;;;8.63;1.80;;;;;;;7.83;100.00;101202.25;5068104;28;20360;-72
2024/01/29 04:33:42;;;;;;;14.82;2.50;;;;;;;7.65;100.00;101190.44;5069158;28;20402;-72
2024/01/29 04:36:13;;;;;;;8.73;1.85;;;;;;;7.70;100.00;101193.81;5068946;28;20044;-72
2024/01/29 04:38:43;;;;;;;10.65;2.38;;;;;;;7.56;100.00;101188.84;5069119;28;20068;-72
2024/01/29 04:41:19;;;;;;;15.02;2.05;;;;;;;7.65;100.00;101202.59;5068168;28;20122;-72
2024/01/29 04:43:46;;;;;;;5.57;1.58;;;;;;;7.58;100.00;101214.88;5055127;28;20474;-71
2024/01/29 04:46:13;;;;;;;9.45;3.25;;;;;;;7.69;100.00;101218.16;5066876;28;20055;-72
2024/01/29 04:48:40;;;;;;;11.07;1.98;;;;;;;7.62;100.00;101221.75;5069183;28;20044;-72
2024/01/29 04:51:08;;;;;;;15.68;3.25;;;;;;;7.67;100.00;101246.00;5063148;28;20483;-73
2024/01/29 04:53:35;;;;;;;10.32;2.28;;;;;;;7.72;100.00;101246.78;5065847;28;20490;-72
2024/01/29 04:56:03;;;;;;;7.55;1.90;;;;;;;7.72;100.00;101252.00;5066865;28;20049;-72
2024/01/29 04:58:31;;;;;;;8.95;2.28;;;;;;;7.68;100.00;101258.13;5068911;28;20508;-72
2024/01/29 05:01:01;;;;;;;7.80;2.05;;;;;;;7.69;100.00;101262.47;5078592;28;20056;-72
2024/01/29 05:03:28;;;;;;;10.65;1.77;;;;;;;7.56;100.00;101253.13;5077059;28;20141;-72
2024/01/29 05:05:55;;;;;;;11.55;2.03;;;;;;;7.70;100.00;101243.34;5069179;28;20781;-72
2024/01/29 05:08:22;;;;;;;9.90;1.80;;;;;;;7.62;100.00;101254.78;5069193;28;20059;-71
2024/01/29 05:10:49;;;;;;;10.77;2.25;;;;;;;7.55;100.00;101277.47;5052860;28;20395;-72
2024/01/29 05:13:17;;;;;;;10.75;2.15;;;;;;;7.50;100.00;101285.34;5055425;28;20052;-73
2024/01/29 05:15:43;;;;;;;10.70;2.72;;;;;;;7.65;100.00;101279.06;5058758;28;20056;-71
2024/01/29 05:18:11;;;;;;;9.05;2.30;;;;;;;7.71;100.00;101289.34;5064704;28;20061;-72
2024/01/29 05:20:38;;;;;;;9.68;1.80;;;;;;;7.72;100.00;101291.09;5066400;28;20098;-71
2024/01/29 05:23:05;;;;;;;4.82;1.27;;;;;;;7.88;100.00;101286.47;5074309;28;20132;-71
2024/01/29 05:25:32;;;;;;;9.32;2.13;;;;;;;7.57;100.00;101293.94;5059894;28;20088;-72
2024/01/29 05:27:59;;;;;;;10.95;2.15;;;;;;;7.56;100.00;101300.91;5048845;28;20084;-72
2024/01/29 05:30:26;;;;;;;9.20;2.08;;;;;;;7.39;100.00;101288.13;5067978;28;20490;-71
2024/01/29 05:32:53;;;;;;;11.82;3.40;;;;;;;7.47;100.00;101300.19;5068123;28;20080;-72
2024/01/29 05:35:19;;;;;;;7.13;2.00;;;;;;;7.51;100.00;101307.94;5061713;28;20556;-72
2024/01/29 05:37:46;;;;;;;7.88;1.95;;;;;;;7.57;100.00;101309.56;5068908;28;20044;-71
2024/01/29 05:40:13;;;;;;;9.63;1.90;;;;;;;7.44;100.00;101318.47;5063562;28;20063;-72
2024/01/29 05:42:40;;;;;;;10.18;2.50;;;;;;;7.45;100.00;101317.59;5061227;28;20665;-71
2024/01/29 05:45:07;;;;;;;11.40;2.55;;;;;;;7.45;100.00;101315.84;5066605;28;20080;-72
2024/01/29 05:47:34;;;;;;;9.02;1.70;;;;;;;7.52;100.00;101329.63;5073077;28;20526;-71
2024/01/29 05:50:05;;;;;;;7.90;1.80;;;;;;;7.47;100.00;101323.63;5080652;28;20571;-72
2024/01/29 05:52:33;;;;;;;7.05;1.65;;;;;;;7.49;100.00;101334.88;5072203;28;20418;-72
2024/01/29 05:55:00;;;;;;;4.60;1.40;;;;;;;7.44;100.00;101332.38;5072426;28;20053;-72
2024/01/29 05:57:27;;;;;;;6.10;1.60;;;;;;;7.38;100.00;101348.06;5058722;28;20052;-72
2024/01/29 05:59:54;;;;;;;4.93;1.50;;;;;;;7.27;100.00;101340.41;5071281;28;20048;-72
2024/01/29 06:02:21;;;;;;;9.80;1.73;;;;;;;7.33;100.00;101355.09;5056412;28;20390;-72
2024/01/29 06:04:48;;;;;;;10.38;2.58;;;;;;;7.18;100.00;101344.00;5072826;28;20049;-71
2024/01/29 06:07:15;;;;;;;7.00;1.70;;;;;;;7.04;100.00;101345.94;5071721;28;20052;-72
2024/01/29 06:09:41;;;;;;;7.43;2.00;;;;;;;6.79;100.00;101338.44;5062363;28;20068;-72
2024/01/29 06:12:08;;;;;;;10.50;1.90;;;;;;;6.79;100.00;101328.03;5072130;28;20465;-72
2024/01/29 06:14:35;;;;;;;9.48;2.10;;;;;;;6.84;100.00;101338.41;5071785;28;20053;-71
2024/01/29 06:17:02;;;;;;;8.32;1.67;;;;;;;6.84;100.00;101333.19;5061939;28;20271;-72
2024/01/29 06:19:30;;;;;;;6.30;1.60;;;;;;;7.05;100.00;101352.88;5065141;28;20048;-71
2024/01/29 06:21:57;;;;;;;9.50;1.95;;;;;;;7.06;100.00;101349.38;5052681;28;20045;-72
2024/01/29 06:24:23;;;;;;;7.45;1.63;;;;;;;6.79;100.00;101350.59;5088262;28;20445;-72
2024/01/29 06:26:50;;;;;;;5.90;1.80;;;;;;;6.99;100.00;101337.31;5058106;28;20052;-72
2024/01/29 06:29:17;;;;;;;6.93;1.55;;;;;;;7.07;100.00;101340.69;5075131;28;20064;-72
2024/01/29 06:31:43;;;;;;;11.38;2.63;;;;;;;7.12;100.00;101346.72;5057102;28;20070;-72
2024/01/29 06:34:10;;;;;;;10.88;1.98;;;;;;;6.99;100.00;101347.75;5070027;28;20048;-72
2024/01/29 06:36:37;;;;;;;7.85;2.20;;;;;;;7.10;100.00;101353.69;5066517;28;20483;-72
2024/01/29 06:39:04;;;;;;;8.45;1.98;;;;;;;7.19;100.00;101358.75;5064902;28;20764;-72
2024/01/29 06:41:31;;;;;;;14.30;2.40;;;;;;;7.14;100.00;101363.16;5057727;28;20399;-72
2024/01/29 06:43:58;;;;;;;5.97;1.73;;;;;;;7.07;100.00;101353.72;5068306;28;20041;-72
2024/01/29 06:46:25;;;;;;;10.52;2.15;;;;;;;7.16;100.00;101360.56;5070940;28;20434;-72
2024/01/29 06:48:51;;;;;;;9.20;2.00;;;;;;;7.10;100.00;101373.63;5067286;28;20084;-73
2024/01/29 06:51:19;;;;;;;6.35;1.60;;;;;;;7.22;100.00;101386.50;5054966;28;20135;-72
2024/01/29 06:53:46;;;;;;;5.85;1.58;;;;;;;7.21;100.00;101390.84;5066723;28;20047;-72
2024/01/29 06:56:13;;;;;;;6.70;2.00;;;;;;;7.23;100.00;101389.09;5070779;28;20053;-72
2024/01/29 06:58:40;;;;;;;7.38;1.63;;;;;;;7.20;100.00;101383.91;5059348;28;20522;-72
2024/01/29 07:01:08;;;;;;;6.75;1.83;;;;;;;7.25;100.00;101385.63;5053275;28;20045;-72
2024/01/29 07:03:35;;;;;;;6.72;1.60;;;;;;;7.20;100.00;101386.50;5064174;28;20555;-72
2024/01/29 07:06:02;;;;;;;9.50;1.85;;;;;;;7.17;100.00;101390.91;5069385;28;20110;-72
2024/01/29 07:08:29;;;;;;;9.30;2.13;;;;;;;7.07;100.00;101402.34;5069352;28;20056;-72
2024/01/29 07:10:55;;;;;;;12.52;2.13;;;;;;;6.94;100.00;101409.41;5051638;28;20532;-72
2024/01/29 07:13:23;;;;;;;11.25;2.50;;;;;;;6.73;100.00;101402.72;5056179;28;20049;-72
2024/01/29 07:15:49;;;;;;;10.80;1.73;;;;;;;6.88;100.00;101412.09;5061232;28;20476;-72
2024/01/29 07:18:17;;;;;;;9.75;2.08;;;;;;;6.92;100.00;101419.84;5048446;28;20059;-72
2024/01/29 07:20:45;;;;;;;8.27;2.20;;;;;;;6.96;100.00;101408.53;5055822;28;20565;-72
2024/01/29 07:23:12;;;;;;;8.85;3.15;;;;;;;6.98;100.00;101409.38;5067409;28;20106;-72
2024/01/29 07:25:38;;;;;;;8.82;2.83;;;;;;;6.99;100.00;101413.72;5064334;28;20094;-72
2024/01/29 07:28:06;;;;;;;7.78;2.10;;;;;;;7.00;100.00;101419.78;5065429;28;20044;-72
2024/01/29 07:30:33;;;;;;;5.90;1.52;;;;;;;6.93;100.00;101420.72;5059524;28;20450;-72
2024/01/29 07:33:01;;;;;;;9.38;2.10;;;;;;;6.67;100.00;101418.41;5062374;28;20146;-72
2024/01/29 07:35:28;;;;;;;12.38;2.47;;;;;;;6.49;100.00;101417.72;5066630;28;20145;-72
2024/01/29 07:37:55;;;;;;;5.78;1.70;;;;;;;6.26;100.00;101428.31;5069255;28;20048;-72
2024/01/29 07:40:22;;;;;;;14.57;1.85;;;;;;;6.12;100.00;101424.97;5067913;28;20056;-73
2024/01/29 07:42:49;;;;;;;10.00;2.25;;;;;;;6.15;100.00;101435.38;5062439;28;20556;-72
2024/01/29 07:45:16;;;;;;;8.07;2.10;;;;;;;6.11;100.00;101449.25;5067765;28;20049;-72
2024/01/29 07:47:44;;;;;;;10.00;1.80;;;;;;;6.27;100.00;101448.28;5067253;28;20056;-72
2024/01/29 07:50:12;;;;;;;6.45;1.80;;;;;;;6.32;100.00;101449.09;5064740;28;20049;-72
2024/01/29 07:52:38;;;;;;;8.05;2.00;;;;;;;6.45;100.00;101462.84;5051663;28;20049;-72
2024/01/29 07:55:05;;;;;;;13.73;1.95;;;;;;;6.42;100.00;101455.91;5067913;28;20055;-72
2024/01/29 07:57:32;;;;;;;9.40;2.05;;;;;;;6.55;100.00;101469.69;5069015;28;20076;-72
2024/01/29 07:59:59;;;;;;;8.65;1.48;;;;;;;6.59;100.00;101470.53;5065154;28;20457;-72
2024/01/29 08:02:26;;;;;;;7.90;2.28;;;;;;;6.64;100.00;101471.34;5062790;28;20533;-72
2024/01/29 08:04:53;;;;;;;6.60;1.70;;;;;;;6.65;100.00;101481.72;5050296;28;20060;-73
2024/01/29 08:07:21;;;;;;;8.02;2.22;;;;;;;6.70;100.00;101486.03;5062319;28;20059;-72
2024/01/29 08:09:48;;;;;;;11.50;2.40;;;;;;;6.62;100.00;101481.78;5058289;28;20076;-72
2024/01/29 08:12:15;;;;;;;7.22;1.88;;;;;;;6.40;100.00;101470.69;5061460;28;20150;-72
2024/01/29 08:14:42;;;;;;;6.90;1.88;;;;;;;6.50;100.00;101483.59;5067322;28;20056;-72
2024/01/29 08:17:08;;;;;;;8.40;1.83;;;;;;;6.52;100.00;101482.72;5058854;28;20052;-72
2024/01/29 08:19:35;;;;;;;6.63;1.60;;;;;;;6.49;100.00;101493.16;5058924;28;20050;-72
2024/01/29 08:22:02;;;;;;;6.65;1.70;;;;;;;6.50;100.00;101500.09;5061036;28;20490;-72
2024/01/29 08:24:29;;;;;;;7.07;1.58;;;;;;;6.59;100.00;101497.41;5057154;28;20469;-72
2024/01/29 08:26:55;;;;;;;5.72;1.70;;;;;;;6.56;100.00;101505.22;5055199;28;20134;-72
2024/01/29 08:29:22;;;;;;;6.25;1.73;;;;;;;6.53;100.00;101496.59;5060351;28;20131;-72
2024/01/29 08:31:49;;;;;;;9.90;2.20;;;;;;;6.46;100.00;101500.97;5063030;28;20063;-73
2024/01/29 08:34:16;;;;;;;9.05;2.13;;;;;;;6.50;100.00;101512.22;5049521;28;20487;-72
2024/01/29 08:36:43;;;;;;;10.10;1.92;;;;;;;6.51;100.00;101509.59;5057241;28;20147;-72
2024/01/29 08:39:09;;;;;;;10.93;2.00;;;;;;;6.59;100.00;101518.22;5065575;28;20462;-72
2024/01/29 08:41:36;;;;;;;10.93;2.67;;;;;;;6.44;100.00;101521.78;5066125;28;20048;-72
2024/01/29 08:44:06;;;;;;;8.75;2.03;;;;;;;6.53;100.00;101525.22;5055875;28;20045;-71
2024/01/29 08:46:33;;;;;;;10.60;2.33;;;;;;;6.51;100.00;101522.63;5056065;28;20053;-72
2024/01/29 08:49:00;;;;;;;8.15;2.00;;;;;;;6.42;100.00;101515.75;5058924;28;20044;-72
2024/01/29 08:51:27;;;;;;;10.77;3.55;;;;;;;6.33;100.00;101509.78;5061294;28;20055;-72
2024/01/29 08:53:54;;;;;;;14.35;2.58;;;;;;;6.43;100.00;101527.91;5059992;28;20053;-72
2024/01/29 08:56:20;;;;;;;9.52;2.17;;;;;;;6.56;100.00;101549.47;5069328;28;20056;-72
2024/01/29 08:58:47;;;;;;;12.25;2.55;;;;;;;6.51;100.00;101546.03;5058324;28;20068;-72
2024/01/29 09:01:14;;;;;;;7.22;1.80;;;;;;;6.60;100.00;101532.09;5055544;28;20045;-72
2024/01/29 09:03:41;;;;;;;7.35;1.90;;;;;;;6.61;100.00;101524.28;5053962;28;20047;-72
2024/01/29 09:06:09;;;;;;;9.82;3.60;;;;;;;6.56;100.00;101520.00;5069701;28;20560;-72
2024/01/29 09:08:37;;;;;;;8.43;1.95;;;;;;;6.57;100.00;101530.38;5052440;28;20114;-72
2024/01/29 09:11:03;;;;;;;7.15;2.20;;;;;;;6.57;100.00;101538.19;5068536;28;20052;-73
2024/01/29 09:13:30;;;;;;;15.07;2.28;;;;;;;6.61;100.00;101537.28;5068418;28;20048;-73
2024/01/29 09:15:57;;;;;;;5.30;1.65;;;;;;;6.58;100.00;101533.84;5059103;28;20493;-73
2024/01/29 09:18:24;;;;;;;10.00;2.00;;;;;;;6.64;100.00;101547.69;5060820;28;20048;-73
2024/01/29 09:20:50;;;;;;;10.82;2.17;;;;;;;6.65;100.00;101551.13;5061900;28;20056;-73
2024/01/29 09:23:18;;;;;;;9.32;2.00;;;;;;;6.71;100.00;101555.41;5060333;28;20060;-73
2024/01/29 09:25:45;;;;;;;8.48;1.92;;;;;;;6.72;100.00;101555.41;5063814;28;20048;-71
2024/01/29 09:28:12;;;;;;;7.78;1.98;;;;;;;6.79;100.00;101570.09;5059969;28;20044;-72
2024/01/29 09:30:39;;;;;;;6.47;1.70;;;;;;;6.84;100.00;101563.13;5065262;28;20045;-72
2024/01/29 09:33:08;;;;;;;7.63;1.65;;;;;;;6.91;100.00;101573.50;5064627;28;20045;-70
2024/01/29 09:35:46;;;;;;;8.82;2.28;;;;;;;6.79;100.00;101564.88;5063591;28;20143;-71
2024/01/29 09:38:16;;;;;;;9.98;2.05;;;;;;;6.95;100.00;101565.63;5049006;28;20060;-71
2024/01/29 09:40:44;;;;;;;5.03;1.67;;;;;;;6.99;100.00;101572.53;5067186;28;20056;-71
2024/01/29 09:43:12;;;;;;;7.90;1.88;;;;;;;7.04;100.00;101567.28;5069684;28;20098;-71
2024/01/29 09:45:40;;;;;;;11.93;2.13;;;;;;;7.07;100.00;101564.66;5066399;28;20044;-72
2024/01/29 09:48:11;;;;;;;8.35;1.80;;;;;;;7.16;100.00;101567.16;5065877;28;20060;-71
2024/01/29 09:50:40;;;;;;;12.98;1.95;;;;;;;7.15;100.00;101567.16;5058850;28;20056;-71
2024/01/29 09:53:07;;;;;;;15.32;2.63;;;;;;;7.11;100.00;101562.88;5057544;28;20048;-71
2024/01/29 09:55:34;;;;;;;10.20;1.70;;;;;;;7.15;100.00;101565.44;5057926;28;20391;-71
2024/01/29 09:58:00;;;;;;;6.68;2.05;;;;;;;7.08;100.00;101565.50;5054077;28;20378;-71
2024/01/29 10:00:27;;;;;;;8.23;1.90;;;;;;;6.99;100.00;101575.16;5064747;28;20051;-71
2024/01/29 10:03:01;;;;;;;9.05;2.25;;;;;;;6.80;100.00;101590.06;5054425;28;20049;-72
2024/01/29 10:05:30;;;;;;;8.30;2.35;;;;;;;6.79;100.00;101590.91;5069213;28;20055;-71
2024/01/29 10:08:01;;;;;;;15.18;3.33;;;;;;;6.39;100.00;101580.81;5066547;28;20067;-71
2024/01/29 10:10:28;;;;;;;11.48;2.67;;;;;;;6.68;100.00;101584.09;5071025;28;20421;-71
2024/01/29 10:13:08;;;;;;;11.68;2.80;;;;;;;6.84;100.00;101598.69;5062357;28;20059;-71
2024/01/29 10:15:35;;;;;;;7.75;2.20;;;;;;;6.83;100.00;101596.97;5056317;28;20679;-71
2024/01/29 10:18:04;;;;;;;7.45;1.90;;;;;;;6.95;100.00;101604.66;5055202;28;20048;-71
2024/01/29 10:20:31;;;;;;;13.52;2.10;;;;;;;6.95;100.00;101604.66;5059571;28;20185;-71
2024/01/29 10:22:59;;;;;;;7.75;2.38;;;;;;;7.00;100.00;101610.69;5071970;28;20068;-71
2024/01/29 10:25:27;;;;;;;11.80;2.50;;;;;;;7.06;100.00;101612.38;5060077;28;20414;-73
2024/01/29 10:28:04;;;;;;;8.07;2.40;;;;;;;7.09;100.00;101622.78;5058863;28;20142;-71
2024/01/29 10:30:32;;;;;;;11.50;2.40;;;;;;;7.12;100.00;101621.88;5058513;28;20066;-73
2024/01/29 10:32:58;;;;;;;14.75;2.45;;;;;;;7.18;100.00;101624.44;5052439;28;20053;-72
2024/01/29 10:35:25;;;;;;;18.65;2.85;;;;;;;7.22;100.00;101620.91;5063487;28;20048;-70
2024/01/29 10:37:58;;;;;;;13.60;2.65;;;;;;;7.24;100.00;101629.56;5054526;28;20056;-71
2024/01/29 10:40:25;;;;;;;15.43;2.90;;;;;;;7.25;100.00;101620.03;5063567;28;20059;-73
2024/01/29 10:42:53;;;;;;;10.27;2.83;;;;;;;7.14;100.00;101622.75;5054635;28;20045;-72
2024/01/29 10:45:20;;;;;;;10.90;2.63;;;;;;;7.10;100.00;101619.31;5064675;28;20479;-73
2024/01/29 10:47:52;;;;;;;13.50;2.45;;;;;;;7.19;100.00;101610.56;5071361;28;20139;-73
2024/01/29 10:50:22;;;;;;;12.93;2.60;;;;;;;7.27;100.00;101621.75;5065899;28;20048;-70
2024/01/29 10:52:50;;;;;;;18.73;3.00;;;;;;;7.42;100.00;101631.16;5060480;28;20406;-73
2024/01/29 10:55:17;;;;;;;19.75;3.08;;;;;;;7.54;100.00;101622.34;5052429;28;20058;-72
2024/01/29 10:57:46;;;;;;;20.33;3.30;;;;;;;7.59;100.00;101636.19;5058945;28;20139;-71
2024/01/29 11:00:17;;;;;;;12.65;3.20;;;;;;;7.62;100.00;101636.16;5069439;28;20569;-71
2024/01/29 11:02:44;;;;;;;16.88;3.92;;;;;;;7.62;100.00;101637.91;5067914;28;21251;-71
2024/01/29 11:05:13;;;;;;;17.60;3.67;;;;;;;7.71;100.00;101653.44;5060125;28;20060;-71
2024/01/29 11:07:44;;;;;;;21.20;3.70;;;;;;;7.65;100.00;101650.88;5053305;28;20326;-71
2024/01/29 11:10:23;;;;;;;18.13;3.22;;;;;;;7.76;100.00;101656.88;5063773;28;20478;-73
2024/01/29 11:12:56;;;;;;;16.50;3.60;;;;;;;7.77;100.00;101661.19;5050425;28;20071;-71
2024/01/29 11:15:24;;;;;;;18.40;4.43;;;;;;;7.64;100.00;101662.22;5060241;28;20089;-73
2024/01/29 11:17:50;;;;;;;16.48;3.72;;;;;;;7.78;100.00;101661.16;5054673;28;20052;-73
2024/01/29 11:20:21;;;;;;;25.48;4.22;;;;;;;7.77;100.00;101667.28;5060782;28;20474;-73
2024/01/29 11:22:52;;;;;;;18.98;4.13;;;;;;;7.89;100.00;101666.25;5064021;28;20494;-71